createdAt,value
2023-05-11T00:00:47.484Z,98482.97
2023-05-11T00:03:15.655Z,98494.97
2023-05-11T00:05:43.658Z,98492.16
2023-05-11T00:08:11.545Z,98485.50
2023-05-11T00:10:40.869Z,98483.78
2023-05-11T00:13:08.709Z,98480.28
2023-05-11T00:15:36.600Z,98487.38
2023-05-11T00:18:04.622Z,98480.72
2023-05-11T00:20:32.588Z,98474.56
2023-05-11T00:23:00.482Z,98476.22
2023-05-11T00:25:28.440Z,98477.38
2023-05-11T00:27:57.695Z,98481.44
2023-05-11T00:30:25.724Z,98479.31
2023-05-11T00:32:53.595Z,98478.09
2023-05-11T00:35:21.708Z,98475.28
2023-05-11T00:37:49.586Z,98476.22
2023-05-11T00:40:17.599Z,98475.38
2023-05-11T00:42:45.537Z,98467.56
2023-05-11T00:45:14.766Z,98475.50
2023-05-11T00:47:44.964Z,98474.00
2023-05-11T00:50:13.249Z,98469.69
2023-05-11T00:52:42.378Z,98465.78
2023-05-11T00:55:11.249Z,98472.22
2023-05-11T00:57:39.813Z,98479.16
2023-05-11T01:00:09.040Z,98475.38
2023-05-11T01:02:38.724Z,98475.44
2023-05-11T01:05:07.848Z,98472.34
2023-05-11T01:07:39.893Z,98471.66
2023-05-11T01:10:16.599Z,98470.38
2023-05-11T01:12:54.227Z,98476.97
2023-05-11T01:15:27.431Z,98476.69
2023-05-11T01:18:02.488Z,98479.31
2023-05-11T01:20:31.768Z,98478.63
2023-05-11T01:23:35.542Z,98470.34
2023-05-11T01:26:12.569Z,98469.38
2023-05-11T01:29:06.043Z,98473.84
2023-05-11T01:31:38.781Z,98470.06
2023-05-11T01:34:11.591Z,98469.19
2023-05-11T01:36:45.402Z,98465.63
2023-05-11T01:39:15.074Z,98462.53
2023-05-11T01:41:46.884Z,98462.31
2023-05-11T01:44:18.085Z,98455.84
2023-05-11T01:46:48.605Z,98462.22
2023-05-11T01:49:21.524Z,98464.25
2023-05-11T01:51:51.404Z,98461.22
2023-05-11T01:54:21.274Z,98466.25
2023-05-11T01:56:51.229Z,98460.09
2023-05-11T01:59:19.950Z,98463.34
2023-05-11T02:01:49.464Z,98463.59
2023-05-11T02:04:20.104Z,98459.88
2023-05-11T02:06:49.389Z,98462.53
2023-05-11T02:09:19.513Z,98460.34
2023-05-11T02:11:49.881Z,98469.97
2023-05-11T02:14:20.868Z,98465.34
2023-05-11T02:16:51.675Z,98465.63
2023-05-11T02:19:21.956Z,98471.22
2023-05-11T02:21:51.904Z,98471.50
2023-05-11T02:24:22.219Z,98472.91
2023-05-11T02:26:50.237Z,98479.81
2023-05-11T02:29:18.454Z,98474.34
2023-05-11T02:31:50.860Z,98471.16
2023-05-11T02:34:25.850Z,98467.63
2023-05-11T02:37:00.060Z,98463.16
2023-05-11T02:39:34.581Z,98470.59
2023-05-11T02:42:10.419Z,98465.13
2023-05-11T02:44:40.359Z,98464.97
2023-05-11T02:47:13.909Z,98463.75
2023-05-11T02:49:44.153Z,98468.31
2023-05-11T02:52:14.973Z,98470.44
2023-05-11T02:54:46.969Z,98465.84
2023-05-11T02:57:14.945Z,98466.13
2023-05-11T02:59:43.329Z,98469.59
2023-05-11T03:02:13.302Z,98459.81
2023-05-11T03:04:42.162Z,98456.31
2023-05-11T03:07:10.919Z,98460.38
2023-05-11T03:09:39.026Z,98455.34
2023-05-11T03:12:08.197Z,98454.69
2023-05-11T03:14:39.157Z,98458.97
2023-05-11T03:17:07.967Z,98452.81
2023-05-11T03:19:41.952Z,98448.66
2023-05-11T03:22:12.539Z,98460.84
2023-05-11T03:24:41.190Z,98454.94
2023-05-11T03:27:10.080Z,98452.81
2023-05-11T03:29:42.199Z,98448.34
2023-05-11T03:32:10.364Z,98448.66
2023-05-11T03:34:41.368Z,98446.78
2023-05-11T03:37:15.290Z,98453.25
2023-05-11T03:39:46.605Z,98445.56
2023-05-11T03:42:17.668Z,98451.97
2023-05-11T03:44:47.453Z,98455.03
2023-05-11T03:47:19.725Z,98452.53
2023-05-11T03:49:49.941Z,98451.97
2023-05-11T03:52:18.651Z,98450.16
2023-05-11T03:54:46.561Z,98450.84
2023-05-11T03:57:15.339Z,98450.00
2023-05-11T03:59:43.200Z,98445.41
2023-05-11T04:02:11.184Z,98440.09
2023-05-11T04:04:39.131Z,98446.66
2023-05-11T04:07:08.425Z,98445.00
2023-05-11T04:09:36.243Z,98443.88
2023-05-11T04:12:04.301Z,98437.84
2023-05-11T04:14:32.230Z,98439.81
2023-05-11T04:17:00.663Z,98442.34
2023-05-11T04:19:28.750Z,98436.31
2023-05-11T04:21:56.574Z,98444.69
2023-05-11T04:24:25.794Z,98441.75
2023-05-11T04:26:57.006Z,98440.78
2023-05-11T04:29:27.099Z,98442.16
2023-05-11T04:31:54.946Z,98440.38
2023-05-11T04:34:23.410Z,98439.81
2023-05-11T04:36:53.425Z,98442.44
2023-05-11T04:39:21.715Z,98441.22
2023-05-11T04:41:51.144Z,98437.88
2023-05-11T04:44:19.021Z,98449.16
2023-05-11T04:46:49.291Z,98443.44
2023-05-11T04:49:17.288Z,98445.81
2023-05-11T04:51:45.540Z,98450.81
2023-05-11T04:54:13.368Z,98441.47
2023-05-11T04:56:41.633Z,98449.56
2023-05-11T04:59:11.583Z,98448.88
2023-05-11T05:01:39.447Z,98449.03
2023-05-11T05:04:08.169Z,98453.94
2023-05-11T05:06:38.227Z,98453.38
2023-05-11T05:09:06.986Z,98453.09
2023-05-11T05:11:35.587Z,98449.75
2023-05-11T05:14:03.496Z,98451.41
2023-05-11T05:16:32.851Z,98452.84
2023-05-11T05:19:00.786Z,98459.81
2023-05-11T05:21:29.166Z,98453.25
2023-05-11T05:23:57.714Z,98459.38
2023-05-11T05:26:25.782Z,98462.88
2023-05-11T05:28:54.203Z,98458.97
2023-05-11T05:31:22.215Z,98460.34
2023-05-11T05:33:52.025Z,98458.28
2023-05-11T05:36:19.994Z,98461.22
2023-05-11T05:38:49.082Z,98456.16
2023-05-11T05:41:17.307Z,98467.09
2023-05-11T05:43:46.616Z,98457.34
2023-05-11T05:46:15.627Z,98459.66
2023-05-11T05:48:43.680Z,98467.97
2023-05-11T05:51:12.982Z,98476.34
2023-05-11T05:53:40.939Z,98478.53
2023-05-11T05:56:09.086Z,98477.41
2023-05-11T05:58:37.102Z,98475.66
2023-05-11T06:01:05.380Z,98472.28
2023-05-11T06:03:33.616Z,98470.47
2023-05-11T06:06:02.447Z,98472.97
2023-05-11T06:08:34.872Z,98475.50
2023-05-11T06:11:02.865Z,98483.75
2023-05-11T06:13:30.815Z,98473.53
2023-05-11T06:16:00.840Z,98474.69
2023-05-11T06:18:34.768Z,98481.38
2023-05-11T06:21:04.861Z,98483.59
2023-05-11T06:23:35.049Z,98481.91
2023-05-11T06:26:03.772Z,98478.75
2023-05-11T06:28:33.740Z,98482.75
2023-05-11T06:31:05.900Z,98483.00
2023-05-11T06:33:36.860Z,98476.75
2023-05-11T06:36:09.866Z,98479.13
2023-05-11T06:38:39.089Z,98476.63
2023-05-11T06:41:11.208Z,98483.88
2023-05-11T06:43:39.219Z,98483.91
2023-05-11T06:46:17.971Z,98476.72
2023-05-11T06:48:45.909Z,98482.31
2023-05-11T06:51:14.284Z,98479.44
2023-05-11T06:53:45.229Z,98484.84
2023-05-11T06:56:13.142Z,98481.19
2023-05-11T06:58:42.629Z,98474.75
2023-05-11T07:01:11.997Z,98478.31
2023-05-11T07:03:42.235Z,98483.59
2023-05-11T07:06:11.367Z,98487.22
2023-05-11T07:08:39.219Z,98478.47
2023-05-11T07:11:09.098Z,98486.06
2023-05-11T07:13:36.931Z,98480.25
2023-05-11T07:16:05.099Z,98485.56
2023-05-11T07:18:33.084Z,98496.91
2023-05-11T07:21:03.464Z,98493.41
2023-05-11T07:23:31.734Z,98492.97
2023-05-11T07:25:59.720Z,98496.91
2023-05-11T07:28:31.035Z,98500.97
2023-05-11T07:30:58.948Z,98501.81
2023-05-11T07:33:29.897Z,98496.34
2023-05-11T07:35:57.981Z,98496.34
2023-05-11T07:38:26.445Z,98497.00
2023-05-11T07:40:54.508Z,98496.41
2023-05-11T07:43:24.674Z,98504.25
2023-05-11T07:45:55.581Z,98501.81
2023-05-11T07:48:23.513Z,98496.88
2023-05-11T07:50:51.946Z,98495.50
2023-05-11T07:53:20.214Z,98504.81
2023-05-11T07:55:48.130Z,98508.94
2023-05-11T07:58:15.942Z,98505.84
2023-05-11T08:00:43.861Z,98495.66
2023-05-11T08:03:13.217Z,98505.41
2023-05-11T08:05:41.183Z,98496.19
2023-05-11T08:08:09.131Z,98495.66
2023-05-11T08:10:39.205Z,98492.25
2023-05-11T08:13:07.648Z,98493.06
2023-05-11T08:15:35.410Z,98500.13
2023-05-11T08:18:03.756Z,98496.97
2023-05-11T08:20:33.182Z,98495.19
2023-05-11T08:23:01.049Z,98497.19
2023-05-11T08:25:28.963Z,98505.03
2023-05-11T08:27:56.874Z,98497.81
2023-05-11T08:30:24.873Z,98497.75
2023-05-11T08:32:58.521Z,98496.94
2023-05-11T08:35:27.224Z,98492.81
2023-05-11T08:37:56.563Z,98495.47
2023-05-11T08:40:27.694Z,98493.63
2023-05-11T08:43:01.073Z,98498.47
2023-05-11T08:45:33.298Z,98501.53
2023-05-11T08:48:01.359Z,98501.38
2023-05-11T08:50:29.290Z,98499.84
2023-05-11T08:52:58.785Z,98499.72
2023-05-11T08:55:27.423Z,98494.81
2023-05-11T08:57:57.505Z,98503.00
2023-05-11T09:00:25.741Z,98502.31
2023-05-11T09:02:54.317Z,98497.19
2023-05-11T09:05:23.126Z,98502.72
2023-05-11T09:07:54.225Z,98506.22
2023-05-11T09:10:23.533Z,98503.16
2023-05-11T09:12:51.340Z,98504.59
2023-05-11T09:15:19.382Z,98506.88
2023-05-11T09:17:49.859Z,98500.91
2023-05-11T09:20:27.553Z,98503.88
2023-05-11T09:22:56.361Z,98502.72
2023-05-11T09:25:27.266Z,98497.38
2023-05-11T09:27:55.259Z,98507.28
2023-05-11T09:30:24.508Z,98499.56
2023-05-11T09:32:53.815Z,98501.31
2023-05-11T09:35:26.763Z,98498.09
2023-05-11T09:38:02.371Z,98501.66
2023-05-11T09:40:33.928Z,98504.72
2023-05-11T09:43:03.722Z,98502.78
2023-05-11T09:45:39.476Z,98501.81
2023-05-11T09:48:08.225Z,98494.41
2023-05-11T09:50:37.234Z,98499.28
2023-05-11T09:53:05.235Z,98498.38
2023-05-11T09:55:34.522Z,98499.72
2023-05-11T09:58:02.406Z,98500.97
2023-05-11T10:00:30.625Z,98502.03
2023-05-11T10:03:03.200Z,98505.28
2023-05-11T10:05:32.776Z,98503.19
2023-05-11T10:08:02.256Z,98501.94
2023-05-11T10:10:32.018Z,98498.59
2023-05-11T10:13:07.515Z,98499.13
2023-05-11T10:15:38.393Z,98500.03
2023-05-11T10:18:07.985Z,98502.66
2023-05-11T10:20:36.072Z,98500.56
2023-05-11T10:23:04.814Z,98501.25
2023-05-11T10:25:38.623Z,98504.84
2023-05-11T10:28:11.601Z,98504.81
2023-05-11T10:30:39.663Z,98504.31
2023-05-11T10:33:13.503Z,98495.16
2023-05-11T10:35:41.645Z,98498.50
2023-05-11T10:38:09.744Z,98498.13
2023-05-11T10:40:41.399Z,98490.34
2023-05-11T10:43:38.676Z,98500.00
2023-05-11T10:46:22.447Z,98496.19
2023-05-11T10:49:10.364Z,98491.75
2023-05-11T10:52:08.802Z,98486.91
2023-05-11T10:54:53.392Z,98485.53
2023-05-11T10:57:37.852Z,98480.69
2023-05-11T11:00:43.761Z,98479.66
2023-05-11T11:03:13.549Z,98482.47
2023-05-11T11:05:43.756Z,98482.19
2023-05-11T11:08:11.700Z,98482.03
2023-05-11T11:10:43.784Z,98481.50
2023-05-11T11:13:13.759Z,98479.97
2023-05-11T11:16:13.250Z,98476.06
2023-05-11T11:18:43.659Z,98479.94
2023-05-11T11:21:15.619Z,98475.28
2023-05-11T11:23:45.561Z,98478.38
2023-05-11T11:26:15.909Z,98479.75
2023-05-11T11:29:09.535Z,98478.16
2023-05-11T11:31:39.459Z,98481.94
2023-05-11T11:34:39.644Z,98472.75
2023-05-11T11:37:09.760Z,98470.06
2023-05-11T11:39:53.754Z,98474.44
2023-05-11T11:42:35.520Z,98469.78
2023-05-11T11:45:29.988Z,98474.34
2023-05-11T11:48:13.449Z,98467.06
2023-05-11T11:50:43.575Z,98468.91
2023-05-11T11:53:13.088Z,98469.94
2023-05-11T11:55:52.000Z,98469.72
2023-05-11T11:58:58.449Z,98469.53
2023-05-11T12:01:29.419Z,98475.50
2023-05-11T12:04:38.307Z,98475.06
2023-05-11T12:07:09.269Z,98472.41
2023-05-11T12:09:39.867Z,98469.97
2023-05-11T12:12:08.720Z,98464.78
2023-05-11T12:14:37.208Z,98464.50
2023-05-11T12:17:08.284Z,98461.97
2023-05-11T12:19:39.974Z,98459.31
2023-05-11T12:22:08.899Z,98461.94
2023-05-11T12:24:37.154Z,98468.09
2023-05-11T12:27:05.533Z,98462.97
2023-05-11T12:29:33.573Z,98455.28
2023-05-11T12:32:01.898Z,98459.44
2023-05-11T12:34:29.784Z,98455.72
2023-05-11T12:37:00.510Z,98456.78
2023-05-11T12:39:29.431Z,98460.31
2023-05-11T12:41:57.721Z,98456.88
2023-05-11T12:44:27.952Z,98453.38
2023-05-11T12:47:21.682Z,98441.31
2023-05-11T12:49:49.698Z,98438.94
2023-05-11T12:52:19.096Z,98434.56
2023-05-11T12:54:51.351Z,98439.38
2023-05-11T12:57:26.634Z,98433.59
2023-05-11T13:00:12.599Z,98438.84
2023-05-11T13:02:52.203Z,98431.09
2023-05-11T13:05:24.805Z,98430.88
2023-05-11T13:08:00.206Z,98424.00
2023-05-11T13:10:28.698Z,98417.28
2023-05-11T13:12:57.610Z,98425.53
2023-05-11T13:15:28.506Z,98423.88
2023-05-11T13:17:59.042Z,98416.81
2023-05-11T13:20:29.593Z,98419.06
2023-05-11T13:23:07.305Z,98411.22
2023-05-11T13:25:36.921Z,98407.16
2023-05-11T13:28:05.347Z,98406.13
2023-05-11T13:30:35.147Z,98401.34
2023-05-11T13:33:03.478Z,98397.41
2023-05-11T13:35:31.455Z,98402.38
2023-05-11T13:37:59.748Z,98399.56
2023-05-11T13:40:29.091Z,98406.88
2023-05-11T13:42:57.163Z,98400.22
2023-05-11T13:45:25.142Z,98394.97
2023-05-11T13:47:53.164Z,98388.75
2023-05-11T13:50:21.208Z,98388.69
2023-05-11T13:52:49.094Z,98382.50
2023-05-11T13:55:17.334Z,98381.03
2023-05-11T13:57:46.826Z,98382.50
2023-05-11T14:00:18.263Z,98375.69
2023-05-11T14:02:48.061Z,98379.34
2023-05-11T14:05:16.246Z,98366.16
2023-05-11T14:07:48.145Z,98375.69
2023-05-11T14:10:16.953Z,98374.38
2023-05-11T14:12:46.657Z,98376.00
2023-05-11T14:15:14.880Z,98369.22
2023-05-11T14:17:43.428Z,98368.13
2023-05-11T14:20:12.929Z,98369.00
2023-05-11T14:22:41.369Z,98377.44
2023-05-11T14:25:11.904Z,98366.44
2023-05-11T14:27:39.987Z,98365.66
2023-05-11T14:30:10.695Z,98367.00
2023-05-11T14:32:38.508Z,98360.16
2023-05-11T14:35:06.984Z,98367.63
2023-05-11T14:37:35.359Z,98368.94
2023-05-11T14:40:03.313Z,98366.97
2023-05-11T14:42:31.176Z,98358.63
2023-05-11T14:44:59.045Z,98349.81
2023-05-11T14:47:28.459Z,98343.31
2023-05-11T14:49:56.557Z,98358.56
2023-05-11T14:52:24.659Z,98341.97
2023-05-11T14:54:52.790Z,98335.94
2023-05-11T14:57:20.925Z,98350.31
2023-05-11T14:59:59.011Z,98347.13
2023-05-11T15:02:29.865Z,98345.13
2023-05-11T15:04:57.803Z,98334.22
2023-05-11T15:07:25.814Z,98348.47
2023-05-11T15:09:54.382Z,98346.09
2023-05-11T15:12:24.966Z,98347.94
2023-05-11T15:14:52.953Z,98346.63
2023-05-11T15:17:20.977Z,98349.16
2023-05-11T15:19:50.329Z,98347.31
2023-05-11T15:22:19.786Z,98353.50
2023-05-11T15:24:48.049Z,98351.94
2023-05-11T15:27:16.356Z,98346.97
2023-05-11T15:29:44.596Z,98352.75
2023-05-11T15:32:15.190Z,98344.50
2023-05-11T15:34:58.109Z,98343.41
2023-05-11T15:37:29.044Z,98350.09
2023-05-11T15:39:57.356Z,98350.09
2023-05-11T15:42:25.322Z,98349.63
2023-05-11T15:44:53.476Z,98343.00
2023-05-11T15:47:21.631Z,98339.38
2023-05-11T15:49:49.552Z,98344.28
2023-05-11T15:52:17.505Z,98351.03
2023-05-11T15:54:46.921Z,98346.06
2023-05-11T15:57:14.901Z,98360.00
2023-05-11T15:59:42.811Z,98348.09
2023-05-11T16:02:10.702Z,98352.91
2023-05-11T16:04:38.599Z,98349.03
2023-05-11T16:07:07.061Z,98351.78
2023-05-11T16:09:35.224Z,98356.16
2023-05-11T16:12:04.861Z,98357.31
2023-05-11T16:14:32.844Z,98355.31
2023-05-11T16:17:01.535Z,98346.16
2023-05-11T16:19:30.153Z,98356.78
2023-05-11T16:21:58.552Z,98360.59
2023-05-11T16:24:26.921Z,98365.31
2023-05-11T16:26:54.899Z,98356.06
2023-05-11T16:29:26.207Z,98354.78
2023-05-11T16:31:54.697Z,98352.28
2023-05-11T16:34:23.316Z,98360.19
2023-05-11T16:36:51.199Z,98353.41
2023-05-11T16:39:19.128Z,98350.31
2023-05-11T16:41:46.992Z,98357.31
2023-05-11T16:44:14.814Z,98351.66
2023-05-11T16:46:44.059Z,98352.06
2023-05-11T16:49:11.986Z,98350.16
2023-05-11T16:51:39.838Z,98357.91
2023-05-11T16:54:08.106Z,98354.19
2023-05-11T16:56:36.237Z,98355.38
2023-05-11T16:59:06.633Z,98355.69
2023-05-11T17:01:36.891Z,98351.97
2023-05-11T17:04:06.353Z,98362.97
2023-05-11T17:06:34.824Z,98354.81
2023-05-11T17:09:03.271Z,98360.34
2023-05-11T17:11:31.684Z,98360.13
2023-05-11T17:13:59.928Z,98361.41
2023-05-11T17:16:28.762Z,98365.09
2023-05-11T17:18:58.963Z,98370.03
2023-05-11T17:21:31.148Z,98362.97
2023-05-11T17:23:59.124Z,98360.50
2023-05-11T17:26:39.606Z,98359.81
2023-05-11T17:32:38.141Z,98363.59
2023-05-11T17:35:08.222Z,98364.28
2023-05-11T17:37:40.383Z,98357.03
2023-05-11T17:40:12.031Z,98358.56
2023-05-11T17:42:39.886Z,98359.25
2023-05-11T17:45:10.168Z,98368.31
2023-05-11T17:47:38.243Z,98360.53
2023-05-11T17:50:09.795Z,98358.66
2023-05-11T17:52:39.395Z,98355.34
2023-05-11T17:55:08.514Z,98362.41
2023-05-11T17:57:36.507Z,98356.75
2023-05-11T18:00:09.999Z,98361.91
2023-05-11T18:02:39.637Z,98366.00
2023-05-11T18:05:10.756Z,98367.06
2023-05-11T18:07:40.315Z,98363.28
2023-05-11T18:10:09.250Z,98361.78
2023-05-11T18:12:37.147Z,98366.13
2023-05-11T18:15:05.514Z,98363.03
2023-05-11T18:17:33.439Z,98359.84
2023-05-11T18:20:01.390Z,98369.69
2023-05-11T18:22:30.845Z,98376.00
2023-05-11T18:24:59.985Z,98372.19
2023-05-11T18:27:28.190Z,98371.44
2023-05-11T18:29:56.062Z,98371.28
2023-05-11T18:32:23.933Z,98377.84
2023-05-11T18:34:51.776Z,98369.91
2023-05-11T18:37:19.788Z,98379.28
2023-05-11T18:39:49.641Z,98373.38
2023-05-11T18:42:19.080Z,98388.53
2023-05-11T18:44:46.901Z,98385.84
2023-05-11T18:47:14.762Z,98388.78
2023-05-11T18:49:42.712Z,98391.16
2023-05-11T18:52:12.188Z,98382.63
2023-05-11T18:54:39.974Z,98395.91
2023-05-11T18:57:11.290Z,98392.44
2023-05-11T18:59:40.659Z,98381.53
2023-05-11T19:02:08.507Z,98398.72
2023-05-11T19:04:36.487Z,98388.53
2023-05-11T19:07:04.446Z,98393.50
2023-05-11T19:09:32.593Z,98399.69
2023-05-11T19:12:00.481Z,98405.84
2023-05-11T19:14:30.633Z,98399.56
2023-05-11T19:16:59.869Z,98400.81
2023-05-11T19:19:28.093Z,98399.00
2023-05-11T19:21:55.934Z,98401.38
2023-05-11T19:24:23.747Z,98409.41
2023-05-11T19:27:05.342Z,98405.81
2023-05-11T19:29:35.434Z,98409.47
2023-05-11T19:32:05.237Z,98411.00
2023-05-11T19:34:33.050Z,98408.94
2023-05-11T19:37:01.082Z,98406.41
2023-05-11T19:39:28.964Z,98417.97
2023-05-11T19:41:56.822Z,98417.03
2023-05-11T19:44:24.681Z,98416.47
2023-05-11T19:46:52.616Z,98414.91
2023-05-11T19:49:21.812Z,98418.41
2023-05-11T19:51:49.734Z,98425.25
2023-05-11T19:54:17.596Z,98431.25
2023-05-11T19:56:45.762Z,98429.25
2023-05-11T19:59:14.078Z,98428.91
2023-05-11T20:01:42.024Z,98423.25
2023-05-11T20:04:14.843Z,98418.88
2023-05-11T20:06:44.193Z,98423.69
2023-05-11T20:09:12.111Z,98426.47
2023-05-11T20:11:39.907Z,98423.38
2023-05-11T20:14:08.316Z,98423.63
2023-05-11T20:16:36.191Z,98418.53
2023-05-11T20:19:04.369Z,98423.25
2023-05-11T20:21:33.643Z,98418.22
2023-05-11T20:24:05.462Z,98417.94
2023-05-11T20:26:33.323Z,98423.59
2023-05-11T20:29:01.175Z,98420.41
2023-05-11T20:31:29.116Z,98417.22
2023-05-11T20:36:29.143Z,98418.53
2023-05-11T20:38:56.985Z,98410.78
2023-05-11T20:41:26.283Z,98412.78
2023-05-11T20:43:54.164Z,98419.06
2023-05-11T20:46:22.015Z,98412.53
2023-05-11T20:48:51.924Z,98414.22
2023-05-11T20:51:23.108Z,98415.56
2023-05-11T20:53:51.589Z,98410.69
2023-05-11T20:56:19.736Z,98413.66
2023-05-11T20:58:49.042Z,98414.34
2023-05-11T21:01:16.966Z,98416.16
2023-05-11T21:03:45.052Z,98416.41
2023-05-11T21:06:13.018Z,98419.25
2023-05-11T21:08:43.052Z,98405.25
2023-05-11T21:11:10.908Z,98402.78
2023-05-11T21:13:38.745Z,98407.78
2023-05-11T21:16:09.150Z,98414.50
2023-05-11T21:18:37.109Z,98411.94
2023-05-11T21:21:07.493Z,98412.66
2023-05-11T21:23:35.280Z,98409.03
2023-05-11T21:26:04.049Z,98413.38
2023-05-11T21:28:32.687Z,98414.78
2023-05-11T21:31:00.694Z,98405.00
2023-05-11T21:33:29.914Z,98406.41
2023-05-11T21:35:58.801Z,98413.66
2023-05-11T21:38:26.637Z,98410.31
2023-05-11T21:40:55.068Z,98410.31
2023-05-11T21:43:23.514Z,98418.44
2023-05-11T21:45:51.944Z,98416.75
2023-05-11T21:48:19.913Z,98420.38
2023-05-11T21:50:52.975Z,98420.03
2023-05-11T21:53:21.279Z,98415.72
2023-05-11T21:55:49.380Z,98411.47
2023-05-11T21:58:17.573Z,98409.72
2023-05-11T22:00:45.464Z,98417.75
2023-05-11T22:03:13.898Z,98416.94
2023-05-11T22:05:42.176Z,98413.06
2023-05-11T22:08:15.418Z,98414.63
2023-05-11T22:10:44.495Z,98404.28
2023-05-11T22:13:12.450Z,98417.44
2023-05-11T22:15:40.312Z,98418.41
2023-05-11T22:18:08.313Z,98410.00
2023-05-11T22:20:36.173Z,98419.25
2023-05-11T22:23:04.534Z,98413.66
2023-05-11T22:25:33.773Z,98408.91
2023-05-11T22:28:01.735Z,98409.19
2023-05-11T22:30:29.608Z,98411.97
2023-05-11T22:32:57.562Z,98416.75
2023-05-11T22:35:25.715Z,98412.13
2023-05-11T22:37:54.221Z,98417.88
2023-05-11T22:40:24.736Z,98420.25
2023-05-11T22:42:53.972Z,98420.41
2023-05-11T22:45:22.029Z,98423.47
2023-05-11T22:47:49.886Z,98418.28
2023-05-11T22:50:17.999Z,98421.78
2023-05-11T22:52:47.187Z,98420.13
2023-05-11T22:55:17.286Z,98417.59
2023-05-11T22:57:45.349Z,98416.47
2023-05-11T23:00:15.295Z,98420.50
2023-05-11T23:02:45.540Z,98414.50
2023-05-11T23:05:13.734Z,98423.69
2023-05-11T23:07:41.688Z,98421.75
2023-05-11T23:10:10.126Z,98421.91
2023-05-11T23:12:38.109Z,98407.19
2023-05-11T23:15:09.526Z,98416.84
2023-05-11T23:17:41.257Z,98414.38
2023-05-11T23:20:10.365Z,98414.34
2023-05-11T23:22:40.717Z,98416.91
2023-05-11T23:25:10.433Z,98407.44
2023-05-11T23:27:38.388Z,98411.78
2023-05-11T23:30:07.531Z,98404.47
2023-05-11T23:32:35.470Z,98407.66
2023-05-11T23:35:05.052Z,98405.41
2023-05-11T23:37:33.102Z,98405.72
2023-05-11T23:40:00.886Z,98416.72
2023-05-11T23:42:28.619Z,98406.63
2023-05-11T23:44:56.716Z,98414.19
2023-05-11T23:47:24.640Z,98406.47
2023-05-11T23:49:52.445Z,98405.41
2023-05-11T23:52:21.881Z,98405.53
2023-05-11T23:54:50.425Z,98401.44
2023-05-11T23:57:18.219Z,98395.88
2023-05-11T23:59:48.744Z,98395.47
